createdAt,value
2022-11-24T00:04:33.428Z,99401.89
2022-11-24T00:09:41.079Z,99403.27
2022-11-24T00:14:48.780Z,99401.19
2022-11-24T00:19:56.692Z,99400.85
2022-11-24T00:25:04.489Z,99398.44
2022-11-24T00:30:13.801Z,99403.45
2022-11-24T00:35:21.720Z,99404.30
2022-11-24T00:40:34.739Z,99404.48
2022-11-24T00:45:43.664Z,99400.85
2022-11-24T00:50:59.799Z,99391.52
2022-11-24T00:56:08.202Z,99382.35
2022-11-24T01:01:17.819Z,99374.76
2022-11-24T01:06:27.161Z,99361.65
2022-11-24T01:11:56.395Z,99367.17
2022-11-24T01:17:03.967Z,99380.12
2022-11-24T01:22:11.481Z,99385.84
2022-11-24T01:27:19.167Z,99379.09
2022-11-24T01:32:26.760Z,99382.04
2022-11-24T01:37:34.407Z,99405.86
2022-11-24T01:42:54.486Z,99415.17
2022-11-24T01:48:03.418Z,99411.05
2022-11-24T01:53:12.569Z,99393.95
2022-11-24T01:58:24.798Z,99389.64
2022-11-24T02:03:33.039Z,99402.42
2022-11-24T02:08:47.169Z,99377.73
2022-11-24T02:13:56.088Z,99384.83
2022-11-24T02:19:03.769Z,99396.72
2022-11-24T02:24:20.488Z,99391.55
2022-11-24T02:29:28.052Z,99387.76
2022-11-24T02:34:35.496Z,99393.80
2022-11-24T02:39:43.311Z,99390.17
2022-11-24T02:44:56.636Z,99395.87
2022-11-24T02:50:04.159Z,99382.23
2022-11-24T02:55:12.464Z,99387.41
2022-11-24T03:00:22.129Z,99379.12
2022-11-24T03:05:29.865Z,99389.65
2022-11-24T03:10:37.398Z,99400.17
2022-11-24T03:15:44.961Z,99403.11
2022-11-24T03:20:52.206Z,99394.83
2022-11-24T03:26:08.401Z,99401.03
2022-11-24T03:31:16.535Z,99401.04
2022-11-24T03:36:24.046Z,99398.09
2022-11-24T03:41:31.920Z,99390.84
2022-11-24T03:46:39.644Z,99392.58
2022-11-24T03:51:47.213Z,99387.73
2022-11-24T03:56:54.452Z,99387.38
2022-11-24T04:02:01.968Z,99387.38
2022-11-24T04:07:09.500Z,99398.60
2022-11-24T04:12:42.777Z,99396.70
2022-11-24T04:17:51.361Z,99400.14
2022-11-24T04:22:59.071Z,99398.77
2022-11-24T04:28:06.656Z,99402.90
2022-11-24T04:33:15.020Z,99406.02
2022-11-24T04:39:24.479Z,99408.43
2022-11-24T04:43:52.761Z,99409.80
2022-11-24T04:49:00.122Z,99407.05
2022-11-24T04:54:08.484Z,99408.59
2022-11-24T04:59:18.456Z,99408.59
2022-11-24T05:04:26.121Z,99406.85
2022-11-24T05:09:58.089Z,99417.05
2022-11-24T05:15:01.252Z,99416.01
2022-11-24T05:20:10.343Z,99417.05
2022-11-24T05:25:18.209Z,99415.14
2022-11-24T05:30:25.841Z,99413.75
2022-11-24T05:35:33.517Z,99420.13
2022-11-24T05:40:41.221Z,99417.70
2022-11-24T05:45:48.847Z,99424.97
2022-11-24T05:50:59.487Z,99426.34
2022-11-24T05:56:09.213Z,99432.38
2022-11-24T06:01:16.989Z,99437.57
2022-11-24T06:06:24.529Z,99437.06
2022-11-24T06:11:32.040Z,99437.58
2022-11-24T06:16:39.554Z,99444.65
2022-11-24T06:21:47.000Z,99456.41
2022-11-24T06:26:54.602Z,99465.39
2022-11-24T06:32:02.019Z,99468.67
2022-11-24T06:37:09.566Z,99463.31
2022-11-24T06:42:19.319Z,99461.07
2022-11-24T06:47:27.061Z,99457.61
2022-11-24T06:52:34.564Z,99468.84
2022-11-24T06:57:42.371Z,99474.90
2022-11-24T07:02:50.014Z,99486.63
2022-11-24T07:07:57.694Z,99488.88
2022-11-24T07:13:05.521Z,99495.60
2022-11-24T07:18:12.968Z,99491.45
2022-11-24T07:23:20.361Z,99492.14
2022-11-24T07:28:27.725Z,99500.10
2022-11-24T07:33:35.165Z,99498.19
2022-11-24T07:38:42.639Z,99489.02
2022-11-24T07:43:51.088Z,99490.06
2022-11-24T07:48:59.201Z,99495.59
2022-11-24T07:54:07.013Z,99503.20
2022-11-24T07:59:17.236Z,99500.27
2022-11-24T08:04:24.758Z,99497.17
2022-11-24T08:09:32.145Z,99515.46
2022-11-24T08:14:39.680Z,99514.58
2022-11-24T08:19:47.546Z,99518.23
2022-11-24T08:24:55.090Z,99513.20
2022-11-24T08:30:02.500Z,99514.42
2022-11-24T08:35:14.373Z,99512.35
2022-11-24T08:40:20.480Z,99513.73
2022-11-24T08:45:30.678Z,99517.87
2022-11-24T08:50:38.919Z,99515.45
2022-11-24T08:55:46.573Z,99517.88
2022-11-24T09:00:54.182Z,99520.46
2022-11-24T09:06:01.494Z,99523.92
2022-11-24T09:11:11.279Z,99517.35
2022-11-24T09:16:20.399Z,99512.67
2022-11-24T09:21:27.928Z,99507.31
2022-11-24T09:26:37.295Z,99505.73
2022-11-24T09:31:44.646Z,99505.56
2022-11-24T09:36:52.000Z,99510.39
2022-11-24T09:42:24.545Z,99505.54
2022-11-24T09:47:48.139Z,99509.84
2022-11-24T09:53:02.325Z,99506.36
2022-11-24T09:58:32.492Z,99513.27
2022-11-24T10:03:45.127Z,99508.44
2022-11-24T10:09:27.219Z,99506.19
2022-11-24T10:14:52.979Z,99502.56
2022-11-24T10:20:08.321Z,99502.39
2022-11-24T10:25:26.904Z,99494.42
2022-11-24T10:30:35.000Z,99495.11
2022-11-24T10:35:47.371Z,99491.33
2022-11-24T10:40:59.438Z,99496.15
2022-11-24T10:46:16.932Z,99504.10
2022-11-24T10:51:49.416Z,99510.67
2022-11-24T10:56:58.628Z,99512.22
2022-11-24T11:02:21.944Z,99519.66
2022-11-24T11:07:30.769Z,99535.38
2022-11-24T11:12:45.731Z,99539.02
2022-11-24T11:17:58.361Z,99537.62
2022-11-24T11:23:16.204Z,99534.34
2022-11-24T11:28:31.522Z,99531.21
2022-11-24T11:39:07.690Z,99520.66
2022-11-24T11:44:27.889Z,99520.48
2022-11-24T11:49:36.327Z,99522.71
2022-11-24T11:55:05.780Z,99525.48
2022-11-24T12:00:20.767Z,99533.27
2022-11-24T12:05:40.660Z,99538.79
2022-11-24T12:10:55.845Z,99534.81
2022-11-24T12:16:13.416Z,99535.68
2022-11-24T12:21:26.796Z,99531.34
2022-11-24T12:26:42.918Z,99526.50
2022-11-24T12:32:01.320Z,99529.94
2022-11-24T12:37:23.453Z,99530.29
2022-11-24T12:42:45.891Z,99533.73
2022-11-24T12:48:32.053Z,99533.21
2022-11-24T12:53:42.047Z,99534.42
2022-11-24T12:59:00.269Z,99539.25
2022-11-24T13:04:23.405Z,99536.33
2022-11-24T13:09:31.020Z,99534.42
2022-11-24T13:14:41.207Z,99517.84
2022-11-24T13:19:48.809Z,99531.29
2022-11-24T13:25:19.699Z,99528.85
2022-11-24T13:31:02.304Z,99527.83
2022-11-24T13:36:33.239Z,99530.93
2022-11-24T13:42:41.751Z,99536.63
2022-11-24T13:47:45.620Z,99542.52
2022-11-24T13:53:02.236Z,99547.20
2022-11-24T13:58:37.960Z,99549.27
2022-11-24T14:04:30.005Z,99552.73
2022-11-24T14:09:35.118Z,99548.23
2022-11-24T14:14:43.133Z,99543.91
2022-11-24T14:19:52.389Z,99544.61
2022-11-24T14:25:01.739Z,99550.31
2022-11-24T14:30:22.223Z,99553.96
2022-11-24T14:35:31.968Z,99564.88
2022-11-24T14:40:45.767Z,99567.48
2022-11-24T14:45:59.526Z,99564.52
2022-11-24T14:51:22.019Z,99569.90
2022-11-24T14:56:31.615Z,99575.61
2022-11-24T15:01:39.181Z,99573.18
2022-11-24T15:06:48.679Z,99579.92
2022-11-24T15:11:57.120Z,99581.15
2022-11-24T15:17:04.893Z,99582.17
2022-11-24T15:22:49.840Z,99584.95
2022-11-24T15:27:58.214Z,99591.69
2022-11-24T15:33:12.399Z,99592.39
2022-11-24T15:38:19.808Z,99593.77
2022-11-24T15:43:32.444Z,99593.42
2022-11-24T15:48:40.008Z,99601.91
2022-11-24T15:53:51.073Z,99603.13
2022-11-24T15:58:59.166Z,99605.38
2022-11-24T16:04:06.680Z,99608.31
2022-11-24T16:09:17.969Z,99610.39
2022-11-24T16:14:25.772Z,99612.65
2022-11-24T16:19:36.174Z,99605.56
2022-11-24T16:24:47.747Z,99601.76
2022-11-24T16:29:55.258Z,99601.41
2022-11-24T16:35:02.802Z,99605.03
2022-11-24T16:40:12.202Z,99610.76
2022-11-24T16:45:19.705Z,99620.79
2022-11-24T16:50:27.201Z,99623.20
2022-11-24T16:55:34.440Z,99628.05
2022-11-24T17:00:42.305Z,99634.30
2022-11-24T17:06:00.327Z,99636.19
2022-11-24T17:11:11.675Z,99639.98
2022-11-24T17:16:21.092Z,99643.96
2022-11-24T17:21:29.599Z,99644.84
2022-11-24T17:26:37.070Z,99647.24
2022-11-24T17:31:44.517Z,99655.54
2022-11-24T17:36:52.336Z,99669.20
2022-11-24T17:42:00.222Z,99679.75
2022-11-24T17:47:07.803Z,99683.73
2022-11-24T17:52:16.147Z,99681.14
2022-11-24T17:57:23.601Z,99680.97
2022-11-24T18:02:31.258Z,99680.44
2022-11-24T18:07:40.600Z,99675.25
2022-11-24T18:12:48.319Z,99667.64
2022-11-24T18:17:56.946Z,99658.64
2022-11-24T18:23:05.877Z,99656.05
2022-11-24T18:28:13.949Z,99658.98
2022-11-24T18:33:22.060Z,99656.90
2022-11-24T18:38:30.159Z,99653.59
2022-11-24T18:43:39.327Z,99659.84
2022-11-24T18:48:47.921Z,99662.25
2022-11-24T18:53:58.420Z,99669.52
2022-11-24T18:59:05.807Z,99679.91
2022-11-24T19:04:15.721Z,99679.55
2022-11-24T19:09:23.318Z,99688.19
2022-11-24T19:14:30.960Z,99683.69
2022-11-24T19:19:40.131Z,99690.78
2022-11-24T19:24:50.444Z,99697.70
2022-11-24T19:29:57.625Z,99694.42
2022-11-24T19:35:05.204Z,99700.81
2022-11-24T19:40:14.521Z,99707.57
2022-11-24T19:45:21.934Z,99703.05
2022-11-24T19:50:29.562Z,99709.99
2022-11-24T19:55:37.401Z,99716.73
2022-11-24T20:00:45.001Z,99720.02
2022-11-24T20:05:59.847Z,99726.09
2022-11-24T20:11:08.720Z,99728.67
2022-11-24T20:16:17.941Z,99727.45
2022-11-24T20:21:29.203Z,99730.73
2022-11-24T20:26:38.281Z,99740.42
2022-11-24T20:31:47.273Z,99744.42
2022-11-24T20:36:54.765Z,99736.79
2022-11-24T20:42:02.128Z,99738.17
2022-11-24T20:47:09.667Z,99745.27
2022-11-24T20:52:17.314Z,99744.74
2022-11-24T20:57:24.689Z,99755.66
2022-11-24T21:02:32.380Z,99761.19
2022-11-24T21:07:40.144Z,99760.50
2022-11-24T21:12:47.580Z,99754.61
2022-11-24T21:17:55.122Z,99759.98
2022-11-24T21:23:03.562Z,99755.32
2022-11-24T21:28:13.460Z,99758.27
2022-11-24T21:33:21.602Z,99756.36
2022-11-24T21:38:29.364Z,99762.42
2022-11-24T21:43:37.460Z,99764.33
2022-11-24T21:48:45.335Z,99773.14
2022-11-24T21:53:52.769Z,99782.48
2022-11-24T21:59:00.800Z,99782.48
2022-11-24T22:04:08.546Z,99776.09
2022-11-24T22:09:18.260Z,99770.04
2022-11-24T22:14:26.040Z,99775.91
2022-11-24T22:19:33.562Z,99777.65
2022-11-24T22:24:41.322Z,99768.65
2022-11-24T22:29:54.027Z,99765.71
2022-11-24T22:35:02.125Z,99768.13
2022-11-24T22:40:11.640Z,99773.32
2022-11-24T22:45:19.198Z,99779.91
2022-11-24T22:50:26.525Z,99782.33
2022-11-24T22:55:35.605Z,99774.71
2022-11-24T23:00:43.001Z,99786.30
2022-11-24T23:05:50.416Z,99782.14
2022-11-24T23:11:03.002Z,99784.56
2022-11-24T23:16:12.461Z,99785.44
2022-11-24T23:21:21.073Z,99784.57
2022-11-24T23:26:30.355Z,99788.20
2022-11-24T23:31:40.296Z,99789.59
2022-11-24T23:36:47.833Z,99792.34
2022-11-24T23:41:55.244Z,99793.03
2022-11-24T23:47:02.456Z,99794.25
2022-11-24T23:52:10.116Z,99786.63
2022-11-24T23:57:17.485Z,99781.09
